sensor_id;sensor_type;location;lat;lon;timestamp;P1;durP1;ratioP1;P2;durP2;ratioP2
5776;SDS011;2914;42.668;23.346;2022-12-24T00:00:45;39.80;;;17.50;;
5776;SDS011;2914;42.668;23.346;2022-12-24T00:03:14;34.07;;;19.47;;
5776;SDS011;2914;42.668;23.346;2022-12-24T00:05:43;41.10;;;20.00;;
5776;SDS011;2914;42.668;23.346;2022-12-24T00:08:12;51.10;;;23.63;;
5776;SDS011;2914;42.668;23.346;2022-12-24T00:10:41;47.37;;;23.30;;
5776;SDS011;2914;42.668;23.346;2022-12-24T00:13:11;46.30;;;23.60;;
5776;SDS011;2914;42.668;23.346;2022-12-24T00:15:40;53.67;;;24.60;;
5776;SDS011;2914;42.668;23.346;2022-12-24T00:18:09;43.73;;;21.97;;
5776;SDS011;2914;42.668;23.346;2022-12-24T00:20:38;45.37;;;22.33;;
5776;SDS011;2914;42.668;23.346;2022-12-24T00:23:07;54.73;;;25.10;;
5776;SDS011;2914;42.668;23.346;2022-12-24T00:25:38;46.60;;;23.00;;
5776;SDS011;2914;42.668;23.346;2022-12-24T00:28:08;39.13;;;20.27;;
5776;SDS011;2914;42.668;23.346;2022-12-24T00:30:37;34.03;;;16.97;;
5776;SDS011;2914;42.668;23.346;2022-12-24T00:33:07;38.53;;;20.23;;
5776;SDS011;2914;42.668;23.346;2022-12-24T00:35:36;41.33;;;19.20;;
5776;SDS011;2914;42.668;23.346;2022-12-24T00:38:07;45.77;;;20.63;;
5776;SDS011;2914;42.668;23.346;2022-12-24T00:40:45;39.30;;;17.70;;
5776;SDS011;2914;42.668;23.346;2022-12-24T00:43:14;32.53;;;17.23;;
5776;SDS011;2914;42.668;23.346;2022-12-24T00:45:43;45.47;;;22.50;;
5776;SDS011;2914;42.668;23.346;2022-12-24T00:48:13;39.10;;;21.20;;
5776;SDS011;2914;42.668;23.346;2022-12-24T00:50:42;32.93;;;17.27;;
5776;SDS011;2914;42.668;23.346;2022-12-24T00:53:11;30.07;;;16.60;;
5776;SDS011;2914;42.668;23.346;2022-12-24T00:55:40;33.07;;;18.17;;
5776;SDS011;2914;42.668;23.346;2022-12-24T00:58:10;29.20;;;15.80;;
5776;SDS011;2914;42.668;23.346;2022-12-24T01:00:39;34.97;;;16.90;;
5776;SDS011;2914;42.668;23.346;2022-12-24T01:03:08;37.63;;;17.23;;
5776;SDS011;2914;42.668;23.346;2022-12-24T01:05:37;39.73;;;19.10;;
5776;SDS011;2914;42.668;23.346;2022-12-24T01:08:07;45.30;;;20.73;;
5776;SDS011;2914;42.668;23.346;2022-12-24T01:10:36;31.10;;;17.73;;
5776;SDS011;2914;42.668;23.346;2022-12-24T01:13:05;29.07;;;18.60;;
5776;SDS011;2914;42.668;23.346;2022-12-24T01:15:35;33.43;;;17.27;;
5776;SDS011;2914;42.668;23.346;2022-12-24T01:18:04;35.90;;;20.60;;
5776;SDS011;2914;42.668;23.346;2022-12-24T01:20:33;41.30;;;21.67;;
5776;SDS011;2914;42.668;23.346;2022-12-24T01:23:03;47.47;;;22.50;;
5776;SDS011;2914;42.668;23.346;2022-12-24T01:25:32;45.40;;;21.60;;
5776;SDS011;2914;42.668;23.346;2022-12-24T01:28:01;40.50;;;20.90;;
5776;SDS011;2914;42.668;23.346;2022-12-24T01:30:30;35.07;;;18.47;;
5776;SDS011;2914;42.668;23.346;2022-12-24T01:32:59;38.93;;;18.90;;
5776;SDS011;2914;42.668;23.346;2022-12-24T01:35:28;37.13;;;20.90;;
5776;SDS011;2914;42.668;23.346;2022-12-24T01:37:57;34.17;;;17.83;;
5776;SDS011;2914;42.668;23.346;2022-12-24T01:40:26;34.13;;;18.30;;
5776;SDS011;2914;42.668;23.346;2022-12-24T01:43:15;42.73;;;19.47;;
5776;SDS011;2914;42.668;23.346;2022-12-24T01:48:39;33.60;;;18.20;;
5776;SDS011;2914;42.668;23.346;2022-12-24T01:51:13;42.67;;;17.23;;
5776;SDS011;2914;42.668;23.346;2022-12-24T01:53:51;32.87;;;17.80;;
5776;SDS011;2914;42.668;23.346;2022-12-24T01:56:23;35.83;;;20.13;;
5776;SDS011;2914;42.668;23.346;2022-12-24T01:58:54;39.43;;;20.47;;
5776;SDS011;2914;42.668;23.346;2022-12-24T02:01:24;45.50;;;21.57;;
5776;SDS011;2914;42.668;23.346;2022-12-24T02:03:54;46.63;;;22.47;;
5776;SDS011;2914;42.668;23.346;2022-12-24T02:06:23;45.90;;;22.90;;
5776;SDS011;2914;42.668;23.346;2022-12-24T02:08:53;40.87;;;23.17;;
5776;SDS011;2914;42.668;23.346;2022-12-24T02:11:23;54.67;;;26.73;;
5776;SDS011;2914;42.668;23.346;2022-12-24T02:13:53;49.97;;;24.40;;
5776;SDS011;2914;42.668;23.346;2022-12-24T02:16:26;49.60;;;23.57;;
5776;SDS011;2914;42.668;23.346;2022-12-24T02:19:23;45.90;;;23.83;;
5776;SDS011;2914;42.668;23.346;2022-12-24T02:21:50;44.90;;;22.90;;
5776;SDS011;2914;42.668;23.346;2022-12-24T02:24:28;44.60;;;23.43;;
5776;SDS011;2914;42.668;23.346;2022-12-24T02:27:11;43.70;;;23.67;;
5776;SDS011;2914;42.668;23.346;2022-12-24T02:29:53;50.40;;;22.70;;
5776;SDS011;2914;42.668;23.346;2022-12-24T02:32:47;45.03;;;23.57;;
5776;SDS011;2914;42.668;23.346;2022-12-24T02:35:43;47.33;;;24.60;;
5776;SDS011;2914;42.668;23.346;2022-12-24T02:38:18;41.23;;;23.43;;
5776;SDS011;2914;42.668;23.346;2022-12-24T02:40:51;44.27;;;23.50;;
5776;SDS011;2914;42.668;23.346;2022-12-24T02:43:24;43.00;;;22.37;;
5776;SDS011;2914;42.668;23.346;2022-12-24T02:45:55;49.20;;;25.23;;
5776;SDS011;2914;42.668;23.346;2022-12-24T02:48:27;52.63;;;26.37;;
5776;SDS011;2914;42.668;23.346;2022-12-24T02:51:00;49.77;;;23.80;;
5776;SDS011;2914;42.668;23.346;2022-12-24T02:53:37;52.40;;;24.43;;
5776;SDS011;2914;42.668;23.346;2022-12-24T02:56:18;43.07;;;23.57;;
5776;SDS011;2914;42.668;23.346;2022-12-24T02:58:57;41.87;;;23.60;;
5776;SDS011;2914;42.668;23.346;2022-12-24T03:01:32;51.47;;;24.27;;
5776;SDS011;2914;42.668;23.346;2022-12-24T03:04:06;46.53;;;24.40;;
5776;SDS011;2914;42.668;23.346;2022-12-24T03:06:38;45.63;;;23.00;;
5776;SDS011;2914;42.668;23.346;2022-12-24T03:09:12;49.50;;;23.43;;
5776;SDS011;2914;42.668;23.346;2022-12-24T03:11:47;45.53;;;24.57;;
5776;SDS011;2914;42.668;23.346;2022-12-24T03:14:17;47.37;;;22.30;;
5776;SDS011;2914;42.668;23.346;2022-12-24T03:16:47;41.90;;;21.20;;
5776;SDS011;2914;42.668;23.346;2022-12-24T03:19:17;48.53;;;25.20;;
5776;SDS011;2914;42.668;23.346;2022-12-24T03:21:48;50.00;;;27.27;;
5776;SDS011;2914;42.668;23.346;2022-12-24T03:24:18;84.40;;;37.57;;
5776;SDS011;2914;42.668;23.346;2022-12-24T03:26:47;84.53;;;38.27;;
5776;SDS011;2914;42.668;23.346;2022-12-24T03:29:18;130.23;;;52.47;;
5776;SDS011;2914;42.668;23.346;2022-12-24T03:31:48;122.67;;;55.40;;
5776;SDS011;2914;42.668;23.346;2022-12-24T03:34:19;96.17;;;45.17;;
5776;SDS011;2914;42.668;23.346;2022-12-24T03:36:49;83.47;;;37.97;;
5776;SDS011;2914;42.668;23.346;2022-12-24T03:39:18;83.10;;;36.63;;
5776;SDS011;2914;42.668;23.346;2022-12-24T03:41:47;67.30;;;31.30;;
5776;SDS011;2914;42.668;23.346;2022-12-24T03:44:16;58.73;;;27.23;;
5776;SDS011;2914;42.668;23.346;2022-12-24T03:46:46;46.90;;;26.90;;
5776;SDS011;2914;42.668;23.346;2022-12-24T03:49:15;53.90;;;25.63;;
5776;SDS011;2914;42.668;23.346;2022-12-24T03:51:44;56.63;;;26.40;;
5776;SDS011;2914;42.668;23.346;2022-12-24T03:54:13;49.57;;;25.10;;
5776;SDS011;2914;42.668;23.346;2022-12-24T03:56:42;54.30;;;25.67;;
5776;SDS011;2914;42.668;23.346;2022-12-24T03:59:11;53.20;;;26.30;;
5776;SDS011;2914;42.668;23.346;2022-12-24T04:01:40;53.77;;;24.10;;
5776;SDS011;2914;42.668;23.346;2022-12-24T04:04:09;44.17;;;23.30;;
5776;SDS011;2914;42.668;23.346;2022-12-24T04:06:39;42.17;;;23.33;;
5776;SDS011;2914;42.668;23.346;2022-12-24T04:09:08;52.50;;;27.40;;
5776;SDS011;2914;42.668;23.346;2022-12-24T04:11:37;55.87;;;26.50;;
5776;SDS011;2914;42.668;23.346;2022-12-24T04:14:07;48.67;;;26.23;;
5776;SDS011;2914;42.668;23.346;2022-12-24T04:16:36;50.60;;;24.20;;
5776;SDS011;2914;42.668;23.346;2022-12-24T04:19:05;52.70;;;25.00;;
5776;SDS011;2914;42.668;23.346;2022-12-24T04:21:34;43.50;;;23.90;;
5776;SDS011;2914;42.668;23.346;2022-12-24T04:24:05;42.50;;;23.37;;
5776;SDS011;2914;42.668;23.346;2022-12-24T04:29:11;44.80;;;26.20;;
5776;SDS011;2914;42.668;23.346;2022-12-24T04:31:40;53.57;;;25.30;;
5776;SDS011;2914;42.668;23.346;2022-12-24T04:34:09;45.63;;;23.47;;
5776;SDS011;2914;42.668;23.346;2022-12-24T04:36:38;60.37;;;25.60;;
5776;SDS011;2914;42.668;23.346;2022-12-24T04:41:38;59.53;;;25.07;;
5776;SDS011;2914;42.668;23.346;2022-12-24T04:44:07;45.97;;;22.80;;
5776;SDS011;2914;42.668;23.346;2022-12-24T04:46:37;42.03;;;21.40;;
5776;SDS011;2914;42.668;23.346;2022-12-24T04:49:07;51.10;;;23.60;;
5776;SDS011;2914;42.668;23.346;2022-12-24T04:51:37;50.43;;;23.20;;
5776;SDS011;2914;42.668;23.346;2022-12-24T04:54:06;43.77;;;21.90;;
5776;SDS011;2914;42.668;23.346;2022-12-24T04:56:35;45.00;;;22.63;;
5776;SDS011;2914;42.668;23.346;2022-12-24T04:59:04;55.93;;;25.97;;
5776;SDS011;2914;42.668;23.346;2022-12-24T05:01:33;46.43;;;23.73;;
5776;SDS011;2914;42.668;23.346;2022-12-24T05:04:02;41.67;;;21.77;;
5776;SDS011;2914;42.668;23.346;2022-12-24T05:06:32;55.73;;;21.73;;
5776;SDS011;2914;42.668;23.346;2022-12-24T05:09:01;37.97;;;19.37;;
5776;SDS011;2914;42.668;23.346;2022-12-24T05:11:30;45.77;;;19.70;;
5776;SDS011;2914;42.668;23.346;2022-12-24T05:13:59;39.90;;;17.90;;
5776;SDS011;2914;42.668;23.346;2022-12-24T05:16:28;46.30;;;20.63;;
5776;SDS011;2914;42.668;23.346;2022-12-24T05:18:57;45.50;;;20.00;;
5776;SDS011;2914;42.668;23.346;2022-12-24T05:23:57;51.37;;;21.90;;
5776;SDS011;2914;42.668;23.346;2022-12-24T05:26:44;54.93;;;27.80;;
5776;SDS011;2914;42.668;23.346;2022-12-24T05:29:16;51.70;;;25.67;;
5776;SDS011;2914;42.668;23.346;2022-12-24T05:31:45;47.77;;;22.97;;
5776;SDS011;2914;42.668;23.346;2022-12-24T05:34:15;54.23;;;24.90;;
5776;SDS011;2914;42.668;23.346;2022-12-24T05:36:44;47.80;;;22.97;;
5776;SDS011;2914;42.668;23.346;2022-12-24T05:39:14;42.67;;;22.53;;
5776;SDS011;2914;42.668;23.346;2022-12-24T05:41:52;50.13;;;22.03;;
5776;SDS011;2914;42.668;23.346;2022-12-24T05:44:21;46.83;;;23.17;;
5776;SDS011;2914;42.668;23.346;2022-12-24T05:46:50;47.77;;;22.50;;
5776;SDS011;2914;42.668;23.346;2022-12-24T05:49:19;49.37;;;23.67;;
5776;SDS011;2914;42.668;23.346;2022-12-24T05:51:48;52.97;;;23.50;;
5776;SDS011;2914;42.668;23.346;2022-12-24T05:54:17;46.50;;;23.10;;
5776;SDS011;2914;42.668;23.346;2022-12-24T05:56:46;38.50;;;20.50;;
5776;SDS011;2914;42.668;23.346;2022-12-24T05:59:15;48.20;;;21.23;;
5776;SDS011;2914;42.668;23.346;2022-12-24T06:01:44;38.10;;;19.47;;
5776;SDS011;2914;42.668;23.346;2022-12-24T06:04:13;45.23;;;21.07;;
5776;SDS011;2914;42.668;23.346;2022-12-24T06:06:42;50.03;;;19.80;;
5776;SDS011;2914;42.668;23.346;2022-12-24T06:09:11;48.40;;;22.27;;
5776;SDS011;2914;42.668;23.346;2022-12-24T06:14:30;46.17;;;21.77;;
5776;SDS011;2914;42.668;23.346;2022-12-24T06:17:00;46.90;;;21.83;;
5776;SDS011;2914;42.668;23.346;2022-12-24T06:19:29;41.20;;;20.97;;
5776;SDS011;2914;42.668;23.346;2022-12-24T06:21:57;44.47;;;21.00;;
5776;SDS011;2914;42.668;23.346;2022-12-24T06:24:27;46.10;;;21.37;;
5776;SDS011;2914;42.668;23.346;2022-12-24T06:26:56;45.23;;;21.00;;
5776;SDS011;2914;42.668;23.346;2022-12-24T06:29:25;38.10;;;21.40;;
5776;SDS011;2914;42.668;23.346;2022-12-24T06:31:54;43.53;;;19.60;;
5776;SDS011;2914;42.668;23.346;2022-12-24T06:34:25;37.13;;;20.37;;
5776;SDS011;2914;42.668;23.346;2022-12-24T06:36:55;35.10;;;19.40;;
5776;SDS011;2914;42.668;23.346;2022-12-24T06:39:26;66.83;;;33.40;;
5776;SDS011;2914;42.668;23.346;2022-12-24T06:41:55;61.27;;;29.70;;
5776;SDS011;2914;42.668;23.346;2022-12-24T06:44:24;51.93;;;25.13;;
5776;SDS011;2914;42.668;23.346;2022-12-24T06:46:53;49.17;;;25.27;;
5776;SDS011;2914;42.668;23.346;2022-12-24T06:49:22;43.93;;;25.03;;
5776;SDS011;2914;42.668;23.346;2022-12-24T06:51:52;50.43;;;26.63;;
5776;SDS011;2914;42.668;23.346;2022-12-24T06:54:21;63.17;;;28.80;;
5776;SDS011;2914;42.668;23.346;2022-12-24T06:56:50;107.30;;;46.80;;
5776;SDS011;2914;42.668;23.346;2022-12-24T06:59:19;104.80;;;44.87;;
5776;SDS011;2914;42.668;23.346;2022-12-24T07:01:49;93.27;;;45.10;;
5776;SDS011;2914;42.668;23.346;2022-12-24T07:06:54;120.13;;;51.63;;
5776;SDS011;2914;42.668;23.346;2022-12-24T07:09:23;108.13;;;49.53;;
5776;SDS011;2914;42.668;23.346;2022-12-24T07:12:01;133.27;;;53.97;;
5776;SDS011;2914;42.668;23.346;2022-12-24T07:14:30;181.77;;;69.77;;
5776;SDS011;2914;42.668;23.346;2022-12-24T07:16:59;152.17;;;61.60;;
5776;SDS011;2914;42.668;23.346;2022-12-24T07:19:28;120.53;;;49.43;;
5776;SDS011;2914;42.668;23.346;2022-12-24T07:21:59;102.30;;;49.07;;
5776;SDS011;2914;42.668;23.346;2022-12-24T07:24:28;57.20;;;29.50;;
5776;SDS011;2914;42.668;23.346;2022-12-24T07:26:57;70.63;;;34.40;;
5776;SDS011;2914;42.668;23.346;2022-12-24T07:29:26;69.73;;;32.47;;
5776;SDS011;2914;42.668;23.346;2022-12-24T07:31:55;140.60;;;56.17;;
5776;SDS011;2914;42.668;23.346;2022-12-24T07:34:24;105.33;;;44.23;;
5776;SDS011;2914;42.668;23.346;2022-12-24T07:36:54;112.07;;;45.33;;
5776;SDS011;2914;42.668;23.346;2022-12-24T07:39:23;112.50;;;43.90;;
5776;SDS011;2914;42.668;23.346;2022-12-24T07:41:55;95.00;;;43.37;;
5776;SDS011;2914;42.668;23.346;2022-12-24T07:44:24;110.87;;;41.70;;
5776;SDS011;2914;42.668;23.346;2022-12-24T07:46:53;102.57;;;42.93;;
5776;SDS011;2914;42.668;23.346;2022-12-24T07:49:22;109.70;;;42.73;;
5776;SDS011;2914;42.668;23.346;2022-12-24T07:52:00;85.07;;;36.70;;
5776;SDS011;2914;42.668;23.346;2022-12-24T07:54:29;82.13;;;37.00;;
5776;SDS011;2914;42.668;23.346;2022-12-24T07:56:58;103.00;;;42.17;;
5776;SDS011;2914;42.668;23.346;2022-12-24T07:59:55;60.80;;;28.33;;
5776;SDS011;2914;42.668;23.346;2022-12-24T08:02:24;99.87;;;42.13;;
5776;SDS011;2914;42.668;23.346;2022-12-24T08:04:53;92.93;;;40.43;;
5776;SDS011;2914;42.668;23.346;2022-12-24T08:07:22;86.53;;;39.40;;
5776;SDS011;2914;42.668;23.346;2022-12-24T08:09:51;78.77;;;40.20;;
5776;SDS011;2914;42.668;23.346;2022-12-24T08:12:20;67.87;;;35.33;;
5776;SDS011;2914;42.668;23.346;2022-12-24T08:14:50;388.90;;;180.83;;
5776;SDS011;2914;42.668;23.346;2022-12-24T08:17:19;547.53;;;292.63;;
5776;SDS011;2914;42.668;23.346;2022-12-24T08:19:48;402.53;;;196.43;;
5776;SDS011;2914;42.668;23.346;2022-12-24T08:22:17;103.03;;;48.80;;
5776;SDS011;2914;42.668;23.346;2022-12-24T08:24:46;54.93;;;30.47;;
5776;SDS011;2914;42.668;23.346;2022-12-24T08:27:15;91.53;;;40.33;;
5776;SDS011;2914;42.668;23.346;2022-12-24T08:29:44;66.00;;;30.07;;
5776;SDS011;2914;42.668;23.346;2022-12-24T08:32:13;56.93;;;27.87;;
5776;SDS011;2914;42.668;23.346;2022-12-24T08:34:42;56.07;;;26.20;;
5776;SDS011;2914;42.668;23.346;2022-12-24T08:37:20;40.23;;;21.80;;
5776;SDS011;2914;42.668;23.346;2022-12-24T08:39:49;46.20;;;21.87;;
5776;SDS011;2914;42.668;23.346;2022-12-24T08:42:18;45.67;;;23.77;;
5776;SDS011;2914;42.668;23.346;2022-12-24T08:44:48;46.53;;;25.57;;
5776;SDS011;2914;42.668;23.346;2022-12-24T08:47:25;60.73;;;27.80;;
5776;SDS011;2914;42.668;23.346;2022-12-24T08:49:54;64.40;;;30.23;;
5776;SDS011;2914;42.668;23.346;2022-12-24T08:52:23;62.00;;;30.80;;
5776;SDS011;2914;42.668;23.346;2022-12-24T08:54:53;214.73;;;94.67;;
5776;SDS011;2914;42.668;23.346;2022-12-24T08:57:22;81.33;;;33.23;;
5776;SDS011;2914;42.668;23.346;2022-12-24T08:59:51;102.63;;;48.10;;
5776;SDS011;2914;42.668;23.346;2022-12-24T09:02:28;61.57;;;33.17;;
5776;SDS011;2914;42.668;23.346;2022-12-24T09:04:58;97.13;;;43.90;;
5776;SDS011;2914;42.668;23.346;2022-12-24T09:07:27;113.97;;;48.37;;
5776;SDS011;2914;42.668;23.346;2022-12-24T09:09:56;111.43;;;47.73;;
5776;SDS011;2914;42.668;23.346;2022-12-24T09:12:25;78.87;;;39.80;;
5776;SDS011;2914;42.668;23.346;2022-12-24T09:14:54;74.17;;;35.60;;
5776;SDS011;2914;42.668;23.346;2022-12-24T09:17:31;46.50;;;24.30;;
5776;SDS011;2914;42.668;23.346;2022-12-24T09:20:00;68.70;;;34.80;;
5776;SDS011;2914;42.668;23.346;2022-12-24T09:22:38;60.30;;;32.73;;
5776;SDS011;2914;42.668;23.346;2022-12-24T09:25:08;39.67;;;22.87;;
5776;SDS011;2914;42.668;23.346;2022-12-24T09:27:37;47.33;;;20.63;;
5776;SDS011;2914;42.668;23.346;2022-12-24T09:30:07;42.47;;;20.90;;
5776;SDS011;2914;42.668;23.346;2022-12-24T09:32:38;46.10;;;24.23;;
5776;SDS011;2914;42.668;23.346;2022-12-24T09:35:08;135.07;;;60.00;;
5776;SDS011;2914;42.668;23.346;2022-12-24T09:37:37;48.93;;;26.60;;
5776;SDS011;2914;42.668;23.346;2022-12-24T09:40:22;94.97;;;46.13;;
5776;SDS011;2914;42.668;23.346;2022-12-24T09:42:53;105.17;;;51.80;;
5776;SDS011;2914;42.668;23.346;2022-12-24T09:45:23;130.17;;;53.03;;
5776;SDS011;2914;42.668;23.346;2022-12-24T09:50:33;138.60;;;60.20;;
5776;SDS011;2914;42.668;23.346;2022-12-24T09:53:05;128.80;;;59.30;;
5776;SDS011;2914;42.668;23.346;2022-12-24T09:55:44;153.30;;;62.30;;
5776;SDS011;2914;42.668;23.346;2022-12-24T09:58:18;132.50;;;62.60;;
5776;SDS011;2914;42.668;23.346;2022-12-24T10:00:48;148.27;;;63.90;;
5776;SDS011;2914;42.668;23.346;2022-12-24T10:03:18;139.90;;;62.17;;
5776;SDS011;2914;42.668;23.346;2022-12-24T10:05:55;126.73;;;61.00;;
5776;SDS011;2914;42.668;23.346;2022-12-24T10:08:22;116.43;;;58.53;;
5776;SDS011;2914;42.668;23.346;2022-12-24T10:10:56;124.77;;;58.97;;
5776;SDS011;2914;42.668;23.346;2022-12-24T10:13:32;118.83;;;56.10;;
5776;SDS011;2914;42.668;23.346;2022-12-24T10:16:12;124.27;;;53.10;;
5776;SDS011;2914;42.668;23.346;2022-12-24T10:18:53;126.60;;;54.50;;
5776;SDS011;2914;42.668;23.346;2022-12-24T10:21:25;122.37;;;55.37;;
5776;SDS011;2914;42.668;23.346;2022-12-24T10:24:04;129.87;;;56.40;;
5776;SDS011;2914;42.668;23.346;2022-12-24T10:27:01;124.67;;;57.50;;
5776;SDS011;2914;42.668;23.346;2022-12-24T10:35:52;126.67;;;58.00;;
5776;SDS011;2914;42.668;23.346;2022-12-24T11:06:41;101.70;;;44.87;;
5776;SDS011;2914;42.668;23.346;2022-12-24T11:09:53;120.60;;;48.03;;
5776;SDS011;2914;42.668;23.346;2022-12-24T11:12:33;102.10;;;46.77;;
5776;SDS011;2914;42.668;23.346;2022-12-24T11:15:26;102.70;;;47.60;;
5776;SDS011;2914;42.668;23.346;2022-12-24T11:24:48;96.77;;;43.33;;
5776;SDS011;2914;42.668;23.346;2022-12-24T11:31:27;87.10;;;42.40;;
5776;SDS011;2914;42.668;23.346;2022-12-24T11:43:20;85.10;;;38.27;;
5776;SDS011;2914;42.668;23.346;2022-12-24T11:46:09;76.57;;;36.70;;
5776;SDS011;2914;42.668;23.346;2022-12-24T11:55:39;73.90;;;38.67;;
5776;SDS011;2914;42.668;23.346;2022-12-24T11:59:04;92.93;;;42.07;;
5776;SDS011;2914;42.668;23.346;2022-12-24T12:01:53;74.17;;;39.67;;
5776;SDS011;2914;42.668;23.346;2022-12-24T12:07:32;79.13;;;41.10;;
5776;SDS011;2914;42.668;23.346;2022-12-24T12:10:15;79.63;;;39.67;;
5776;SDS011;2914;42.668;23.346;2022-12-24T12:15:54;79.30;;;41.50;;
5776;SDS011;2914;42.668;23.346;2022-12-24T12:18:34;98.00;;;41.30;;
5776;SDS011;2914;42.668;23.346;2022-12-24T12:21:22;75.40;;;39.20;;
5776;SDS011;2914;42.668;23.346;2022-12-24T12:24:11;84.50;;;40.33;;
5776;SDS011;2914;42.668;23.346;2022-12-24T12:30:13;76.90;;;38.57;;
5776;SDS011;2914;42.668;23.346;2022-12-24T12:32:56;90.00;;;39.90;;
5776;SDS011;2914;42.668;23.346;2022-12-24T12:39:04;70.17;;;34.27;;
5776;SDS011;2914;42.668;23.346;2022-12-24T12:41:47;86.07;;;37.67;;
5776;SDS011;2914;42.668;23.346;2022-12-24T12:44:48;72.13;;;36.33;;
5776;SDS011;2914;42.668;23.346;2022-12-24T12:47:40;79.90;;;33.43;;
5776;SDS011;2914;42.668;23.346;2022-12-24T12:50:44;64.00;;;34.47;;
5776;SDS011;2914;42.668;23.346;2022-12-24T12:56:16;81.17;;;36.20;;
5776;SDS011;2914;42.668;23.346;2022-12-24T12:58:51;64.43;;;33.37;;
5776;SDS011;2914;42.668;23.346;2022-12-24T13:01:25;64.10;;;31.90;;
5776;SDS011;2914;42.668;23.346;2022-12-24T13:04:03;84.33;;;41.97;;
5776;SDS011;2914;42.668;23.346;2022-12-24T13:10:05;87.27;;;41.70;;
5776;SDS011;2914;42.668;23.346;2022-12-24T13:15:32;110.47;;;46.60;;
5776;SDS011;2914;42.668;23.346;2022-12-24T13:20:52;142.67;;;56.77;;
5776;SDS011;2914;42.668;23.346;2022-12-24T13:23:22;131.53;;;58.13;;
5776;SDS011;2914;42.668;23.346;2022-12-24T13:25:53;147.23;;;61.27;;
5776;SDS011;2914;42.668;23.346;2022-12-24T13:28:32;123.37;;;57.43;;
5776;SDS011;2914;42.668;23.346;2022-12-24T13:34:02;135.90;;;61.00;;
5776;SDS011;2914;42.668;23.346;2022-12-24T13:42:13;143.83;;;64.47;;
5776;SDS011;2914;42.668;23.346;2022-12-24T13:48:20;136.30;;;61.33;;
5776;SDS011;2914;42.668;23.346;2022-12-24T13:50:51;150.70;;;63.53;;
5776;SDS011;2914;42.668;23.346;2022-12-24T13:53:25;131.47;;;61.60;;
5776;SDS011;2914;42.668;23.346;2022-12-24T13:55:55;145.47;;;68.13;;
5776;SDS011;2914;42.668;23.346;2022-12-24T13:58:27;139.77;;;59.83;;
5776;SDS011;2914;42.668;23.346;2022-12-24T14:00:57;145.17;;;61.73;;
5776;SDS011;2914;42.668;23.346;2022-12-24T14:03:29;178.70;;;80.43;;
5776;SDS011;2914;42.668;23.346;2022-12-24T14:06:08;147.27;;;60.10;;
5776;SDS011;2914;42.668;23.346;2022-12-24T14:08:40;134.60;;;62.03;;
5776;SDS011;2914;42.668;23.346;2022-12-24T14:11:20;133.80;;;58.97;;
5776;SDS011;2914;42.668;23.346;2022-12-24T14:17:12;126.20;;;55.87;;
5776;SDS011;2914;42.668;23.346;2022-12-24T14:19:45;173.40;;;86.87;;
5776;SDS011;2914;42.668;23.346;2022-12-24T14:22:22;147.63;;;67.60;;
5776;SDS011;2914;42.668;23.346;2022-12-24T14:24:58;149.20;;;66.27;;
5776;SDS011;2914;42.668;23.346;2022-12-24T14:27:32;141.90;;;62.30;;
5776;SDS011;2914;42.668;23.346;2022-12-24T14:30:04;146.20;;;66.83;;
5776;SDS011;2914;42.668;23.346;2022-12-24T14:32:37;209.50;;;100.43;;
5776;SDS011;2914;42.668;23.346;2022-12-24T14:35:08;166.77;;;73.60;;
5776;SDS011;2914;42.668;23.346;2022-12-24T14:37:45;142.40;;;63.37;;
5776;SDS011;2914;42.668;23.346;2022-12-24T14:40:23;144.60;;;62.87;;
5776;SDS011;2914;42.668;23.346;2022-12-24T14:42:57;138.43;;;59.87;;
5776;SDS011;2914;42.668;23.346;2022-12-24T14:45:37;133.70;;;58.00;;
5776;SDS011;2914;42.668;23.346;2022-12-24T14:48:10;113.03;;;56.00;;
5776;SDS011;2914;42.668;23.346;2022-12-24T14:50:56;83.70;;;43.60;;
5776;SDS011;2914;42.668;23.346;2022-12-24T14:53:32;79.37;;;40.53;;
5776;SDS011;2914;42.668;23.346;2022-12-24T14:56:09;74.23;;;37.00;;
5776;SDS011;2914;42.668;23.346;2022-12-24T15:01:30;72.70;;;31.47;;
5776;SDS011;2914;42.668;23.346;2022-12-24T15:04:00;67.13;;;32.00;;
5776;SDS011;2914;42.668;23.346;2022-12-24T15:06:46;52.50;;;30.97;;
5776;SDS011;2914;42.668;23.346;2022-12-24T15:09:19;61.97;;;32.37;;
5776;SDS011;2914;42.668;23.346;2022-12-24T15:11:51;57.07;;;27.30;;
5776;SDS011;2914;42.668;23.346;2022-12-24T15:14:30;58.33;;;26.93;;
5776;SDS011;2914;42.668;23.346;2022-12-24T15:17:02;45.30;;;23.00;;
5776;SDS011;2914;42.668;23.346;2022-12-24T15:19:49;58.00;;;30.17;;
5776;SDS011;2914;42.668;23.346;2022-12-24T15:22:22;32.03;;;18.93;;
5776;SDS011;2914;42.668;23.346;2022-12-24T15:24:53;37.70;;;19.50;;
5776;SDS011;2914;42.668;23.346;2022-12-24T15:27:23;32.93;;;17.87;;
5776;SDS011;2914;42.668;23.346;2022-12-24T15:29:54;27.33;;;16.63;;
5776;SDS011;2914;42.668;23.346;2022-12-24T15:32:24;30.53;;;17.43;;
5776;SDS011;2914;42.668;23.346;2022-12-24T15:34:53;30.33;;;17.80;;
5776;SDS011;2914;42.668;23.346;2022-12-24T15:37:23;28.17;;;16.43;;
5776;SDS011;2914;42.668;23.346;2022-12-24T15:40:09;41.03;;;19.17;;
5776;SDS011;2914;42.668;23.346;2022-12-24T15:42:42;30.53;;;16.00;;
5776;SDS011;2914;42.668;23.346;2022-12-24T15:45:12;32.30;;;16.30;;
5776;SDS011;2914;42.668;23.346;2022-12-24T15:47:44;26.33;;;15.10;;
5776;SDS011;2914;42.668;23.346;2022-12-24T15:50:18;24.20;;;14.40;;
5776;SDS011;2914;42.668;23.346;2022-12-24T15:52:56;28.30;;;16.63;;
5776;SDS011;2914;42.668;23.346;2022-12-24T15:55:30;22.93;;;15.67;;
5776;SDS011;2914;42.668;23.346;2022-12-24T15:58:15;36.17;;;15.30;;
5776;SDS011;2914;42.668;23.346;2022-12-24T16:00:59;25.93;;;15.30;;
5776;SDS011;2914;42.668;23.346;2022-12-24T16:03:29;32.10;;;17.80;;
5776;SDS011;2914;42.668;23.346;2022-12-24T16:06:00;38.63;;;16.37;;
5776;SDS011;2914;42.668;23.346;2022-12-24T16:08:31;32.93;;;16.50;;
5776;SDS011;2914;42.668;23.346;2022-12-24T16:11:08;28.00;;;15.87;;
5776;SDS011;2914;42.668;23.346;2022-12-24T16:13:53;25.70;;;14.80;;
5776;SDS011;2914;42.668;23.346;2022-12-24T16:16:34;27.47;;;14.20;;
5776;SDS011;2914;42.668;23.346;2022-12-24T16:19:05;25.47;;;13.87;;
5776;SDS011;2914;42.668;23.346;2022-12-24T16:21:36;18.33;;;12.30;;
5776;SDS011;2914;42.668;23.346;2022-12-24T16:24:11;28.47;;;14.70;;
5776;SDS011;2914;42.668;23.346;2022-12-24T16:26:55;20.73;;;12.60;;
5776;SDS011;2914;42.668;23.346;2022-12-24T16:29:25;16.93;;;11.80;;
5776;SDS011;2914;42.668;23.346;2022-12-24T16:31:54;22.30;;;12.30;;
5776;SDS011;2914;42.668;23.346;2022-12-24T16:34:25;26.97;;;12.80;;
5776;SDS011;2914;42.668;23.346;2022-12-24T16:36:57;29.57;;;14.30;;
5776;SDS011;2914;42.668;23.346;2022-12-24T16:40:17;26.10;;;14.50;;
5776;SDS011;2914;42.668;23.346;2022-12-24T16:42:46;38.63;;;21.93;;
5776;SDS011;2914;42.668;23.346;2022-12-24T16:45:34;30.03;;;16.03;;
5776;SDS011;2914;42.668;23.346;2022-12-24T16:48:05;24.17;;;14.50;;
5776;SDS011;2914;42.668;23.346;2022-12-24T16:50:34;27.10;;;16.17;;
5776;SDS011;2914;42.668;23.346;2022-12-24T16:53:03;20.27;;;14.10;;
5776;SDS011;2914;42.668;23.346;2022-12-24T16:55:41;26.90;;;13.23;;
5776;SDS011;2914;42.668;23.346;2022-12-24T16:58:13;23.80;;;13.50;;
5776;SDS011;2914;42.668;23.346;2022-12-24T17:00:43;20.50;;;13.23;;
5776;SDS011;2914;42.668;23.346;2022-12-24T17:03:13;21.23;;;13.90;;
5776;SDS011;2914;42.668;23.346;2022-12-24T17:05:42;22.00;;;12.60;;
5776;SDS011;2914;42.668;23.346;2022-12-24T17:08:12;24.77;;;13.50;;